createdAt,value
2018-02-10T00:01:31.859Z,-4.90
2018-02-10T00:03:59.278Z,-4.80
2018-02-10T00:06:26.773Z,-4.90
2018-02-10T00:08:53.315Z,-4.80
2018-02-10T00:11:19.796Z,-4.80
2018-02-10T00:13:47.058Z,-4.80
2018-02-10T00:16:14.273Z,-4.80
2018-02-10T00:18:40.744Z,-4.80
2018-02-10T00:21:07.271Z,-4.80
2018-02-10T00:23:33.782Z,-4.80
2018-02-10T00:26:00.312Z,-4.80
2018-02-10T00:28:27.547Z,-4.80
2018-02-10T00:30:54.091Z,-4.80
2018-02-10T00:33:21.448Z,-4.80
2018-02-10T00:35:47.940Z,-4.80
2018-02-10T00:38:15.166Z,-4.80
2018-02-10T00:40:41.666Z,-4.80
2018-02-10T00:43:08.871Z,-4.80
2018-02-10T00:45:35.332Z,-4.80
2018-02-10T00:48:01.752Z,-4.80
2018-02-10T00:50:28.251Z,-4.80
2018-02-10T00:52:54.781Z,-4.80
2018-02-10T00:55:21.474Z,-4.90
2018-02-10T00:57:48.080Z,-4.90
2018-02-10T01:00:14.540Z,-4.90
2018-02-10T01:02:41.073Z,-4.90
2018-02-10T01:05:07.562Z,-4.90
2018-02-10T01:07:34.807Z,-4.90
2018-02-10T01:10:01.371Z,-5.00
2018-02-10T01:12:28.551Z,-5.00
2018-02-10T01:14:55.820Z,-5.00
2018-02-10T01:17:22.230Z,-5.00
2018-02-10T01:19:48.804Z,-5.00
2018-02-10T01:22:15.283Z,-5.20
2018-02-10T01:24:41.812Z,-5.20
2018-02-10T01:27:09.032Z,-5.20
2018-02-10T01:29:35.574Z,-5.20
2018-02-10T01:32:02.836Z,-5.20
2018-02-10T01:34:29.288Z,-5.20
2018-02-10T01:36:55.748Z,-5.10
2018-02-10T01:39:22.216Z,-5.10
2018-02-10T01:41:48.849Z,-5.20
2018-02-10T01:44:15.423Z,-5.20
2018-02-10T01:46:41.968Z,-5.20
2018-02-10T01:49:08.524Z,-5.20
2018-02-10T01:51:34.932Z,-5.20
2018-02-10T01:54:02.258Z,-5.20
2018-02-10T01:56:28.760Z,-5.30
2018-02-10T01:58:55.194Z,-5.20
2018-02-10T02:01:21.607Z,-5.20
2018-02-10T02:03:48.089Z,-5.30
2018-02-10T02:06:14.557Z,-5.30
2018-02-10T02:08:41.836Z,-5.30
2018-02-10T02:11:08.347Z,-5.30
2018-02-10T02:13:34.803Z,-5.30
2018-02-10T02:16:01.268Z,-5.30
2018-02-10T02:18:27.863Z,-5.30
2018-02-10T02:20:54.333Z,-5.40
2018-02-10T02:23:20.796Z,-5.40
2018-02-10T02:25:47.252Z,-5.40
2018-02-10T02:28:13.758Z,-5.40
2018-02-10T02:30:40.214Z,-5.40
2018-02-10T02:33:06.775Z,-5.50
2018-02-10T02:35:33.235Z,-5.60
2018-02-10T02:37:59.712Z,-5.60
2018-02-10T02:40:26.255Z,-5.60
2018-02-10T02:42:52.818Z,-5.60
2018-02-10T02:45:20.001Z,-5.60
2018-02-10T02:47:47.236Z,-5.60
2018-02-10T02:50:13.768Z,-5.60
2018-02-10T02:52:40.248Z,-5.60
2018-02-10T02:55:07.407Z,-5.60
2018-02-10T02:57:33.920Z,-5.60
2018-02-10T03:00:01.208Z,-5.60
2018-02-10T03:02:27.844Z,-5.60
2018-02-10T03:04:54.334Z,-5.60
2018-02-10T03:07:21.557Z,-5.60
2018-02-10T03:09:48.023Z,-5.60
2018-02-10T03:12:14.568Z,-5.60
2018-02-10T03:14:41.118Z,-5.60
2018-02-10T03:17:07.959Z,-5.60
2018-02-10T03:19:35.260Z,-5.70
2018-02-10T03:22:02.481Z,-5.70
2018-02-10T03:24:28.956Z,-5.70
2018-02-10T03:26:56.136Z,-5.70
2018-02-10T03:29:22.896Z,-5.70
2018-02-10T03:31:49.317Z,-5.70
2018-02-10T03:34:15.804Z,-5.80
2018-02-10T03:36:42.982Z,-5.90
2018-02-10T03:39:10.177Z,-5.80
2018-02-10T03:41:36.691Z,-5.80
2018-02-10T03:44:03.239Z,-5.80
2018-02-10T03:46:30.560Z,-5.80
2018-02-10T03:48:57.028Z,-5.90
2018-02-10T03:51:23.545Z,-5.90
2018-02-10T03:53:50.028Z,-5.90
2018-02-10T03:56:16.560Z,-5.90
2018-02-10T03:58:43.008Z,-5.90
2018-02-10T04:01:10.920Z,-5.90
2018-02-10T04:03:38.167Z,-5.90
2018-02-10T04:06:05.449Z,-5.90
2018-02-10T04:08:31.867Z,-5.90
2018-02-10T04:10:58.293Z,-5.90
2018-02-10T04:13:24.776Z,-5.90
2018-02-10T04:15:52.012Z,-5.90
2018-02-10T04:18:19.287Z,-5.90
2018-02-10T04:20:45.775Z,-6.00
2018-02-10T04:23:13.040Z,-6.00
2018-02-10T04:25:40.280Z,-6.00
2018-02-10T04:28:06.827Z,-6.00
2018-02-10T04:30:33.347Z,-6.00
2018-02-10T04:32:59.841Z,-6.00
2018-02-10T04:35:26.364Z,-6.00
2018-02-10T04:37:52.805Z,-6.00
2018-02-10T04:40:19.274Z,-6.10
2018-02-10T04:42:45.846Z,-6.10
2018-02-10T04:45:13.057Z,-6.20
2018-02-10T04:47:39.520Z,-6.20
2018-02-10T04:50:05.967Z,-6.40
2018-02-10T04:52:33.253Z,-6.30
2018-02-10T04:54:59.782Z,-6.30
2018-02-10T04:57:26.220Z,-6.30
2018-02-10T04:59:52.659Z,-6.20
2018-02-10T05:02:19.156Z,-6.20
2018-02-10T05:04:46.404Z,-6.20
2018-02-10T05:07:12.947Z,-6.20
2018-02-10T05:09:39.373Z,-6.20
2018-02-10T05:12:05.965Z,-6.20
2018-02-10T05:14:32.456Z,-6.20
2018-02-10T05:16:58.948Z,-6.20
2018-02-10T05:19:25.450Z,-6.20
2018-02-10T05:21:51.896Z,-6.30
2018-02-10T05:24:18.380Z,-6.20
2018-02-10T05:26:44.828Z,-6.30
2018-02-10T05:29:11.300Z,-6.30
2018-02-10T05:31:37.747Z,-6.30
2018-02-10T05:34:04.285Z,-6.20
2018-02-10T05:36:30.880Z,-6.20
2018-02-10T05:38:58.112Z,-6.30
2018-02-10T05:41:24.628Z,-6.30
2018-02-10T05:43:51.093Z,-6.30
2018-02-10T05:46:17.617Z,-6.30
2018-02-10T05:48:44.084Z,-6.30
2018-02-10T05:51:10.531Z,-6.30
2018-02-10T05:53:36.978Z,-6.30
2018-02-10T05:56:04.280Z,-6.30
2018-02-10T05:58:31.468Z,-6.40
2018-02-10T06:00:57.937Z,-6.40
2018-02-10T06:03:24.383Z,-6.40
2018-02-10T06:05:50.841Z,-6.30
2018-02-10T06:08:17.301Z,-6.30
2018-02-10T06:10:44.820Z,-6.30
2018-02-10T06:13:11.236Z,-6.30
2018-02-10T06:15:37.755Z,-6.30
2018-02-10T06:18:04.252Z,-6.30
2018-02-10T06:20:31.455Z,-6.30
2018-02-10T06:22:57.976Z,-6.30
2018-02-10T06:25:25.177Z,-6.40
2018-02-10T06:27:51.692Z,-6.40
2018-02-10T06:30:18.923Z,-6.30
2018-02-10T06:32:45.585Z,-6.30
2018-02-10T06:35:12.067Z,-6.30
2018-02-10T06:37:38.604Z,-6.20
2018-02-10T06:40:05.828Z,-6.20
2018-02-10T06:42:32.359Z,-6.20
2018-02-10T06:44:58.816Z,-6.10
2018-02-10T06:47:25.267Z,-6.10
2018-02-10T06:49:51.708Z,-6.10
2018-02-10T06:52:18.191Z,-6.00
2018-02-10T06:54:45.639Z,-5.90
2018-02-10T06:57:12.089Z,-5.80
2018-02-10T06:59:39.579Z,-5.70
2018-02-10T07:02:06.071Z,-5.70
2018-02-10T07:04:32.556Z,-5.60
2018-02-10T07:06:58.988Z,-5.60
2018-02-10T07:09:25.425Z,-5.60
2018-02-10T07:11:51.987Z,-5.60
2018-02-10T07:14:18.823Z,-5.50
2018-02-10T07:16:45.233Z,-5.60
2018-02-10T07:19:12.469Z,-5.50
2018-02-10T07:21:39.006Z,-5.50
2018-02-10T07:24:05.454Z,-5.50
2018-02-10T07:26:31.972Z,-5.50
2018-02-10T07:28:58.748Z,-5.50
2018-02-10T07:31:25.193Z,-5.40
2018-02-10T07:33:51.631Z,-5.30
2018-02-10T07:36:18.085Z,-5.20
2018-02-10T07:38:44.553Z,-5.10
2018-02-10T07:41:10.945Z,-5.00
2018-02-10T07:43:37.438Z,-4.90
2018-02-10T07:46:03.864Z,-4.70
2018-02-10T07:48:30.395Z,-4.60
2018-02-10T07:50:56.888Z,-4.50
2018-02-10T07:53:23.447Z,-4.50
2018-02-10T07:55:49.953Z,-4.40
2018-02-10T07:58:16.407Z,-4.30
2018-02-10T08:00:42.847Z,-4.20
2018-02-10T08:03:09.407Z,-4.20
2018-02-10T08:05:35.833Z,-4.20
2018-02-10T08:08:02.291Z,-4.10
2018-02-10T08:10:28.745Z,-4.00
2018-02-10T08:12:55.240Z,-3.90
2018-02-10T09:31:14.140Z,-3.70
2018-02-10T09:33:40.685Z,-1.40
2018-02-10T09:36:07.095Z,-1.20
2018-02-10T09:38:33.516Z,-1.00
2018-02-10T09:40:59.978Z,-0.70
2018-02-10T09:43:26.395Z,-0.50
2018-02-10T09:45:53.630Z,-0.10
2018-02-10T09:48:20.176Z,-0.10
2018-02-10T09:50:46.571Z,0.10
2018-02-10T09:53:13.775Z,0.40
2018-02-10T09:55:40.208Z,0.40
2018-02-10T09:58:06.592Z,0.50
2018-02-10T10:00:33.028Z,0.70
2018-02-10T10:02:59.445Z,0.70
2018-02-10T10:05:25.873Z,0.80
2018-02-10T10:07:52.286Z,0.80
2018-02-10T10:10:18.663Z,1.00
2018-02-10T10:12:45.130Z,1.00
2018-02-10T10:15:11.623Z,1.10
2018-02-10T10:17:38.016Z,1.30
2018-02-10T10:20:04.497Z,1.50
2018-02-10T10:22:30.909Z,1.60
2018-02-10T10:24:57.381Z,1.60
2018-02-10T10:27:23.858Z,1.60
2018-02-10T10:29:50.372Z,1.70
2018-02-10T10:32:18.284Z,1.70
2018-02-10T10:34:44.685Z,1.80
2018-02-10T10:37:11.071Z,1.80
2018-02-10T10:39:37.471Z,2.00
2018-02-10T10:42:03.860Z,2.20
2018-02-10T10:44:30.258Z,2.30
2018-02-10T10:46:57.377Z,2.40
2018-02-10T10:49:23.779Z,2.40
2018-02-10T10:51:50.225Z,2.50
2018-02-10T10:54:16.640Z,2.60
2018-02-10T10:56:43.827Z,2.70
2018-02-10T10:59:11.015Z,2.70
2018-02-10T11:01:37.456Z,2.70
2018-02-10T11:04:04.021Z,2.90
2018-02-10T11:06:30.478Z,3.00
2018-02-10T11:08:56.908Z,3.00
2018-02-10T11:11:23.331Z,2.90
2018-02-10T11:13:49.795Z,3.00
2018-02-10T11:16:16.240Z,3.10
2018-02-10T11:18:42.662Z,3.00
2018-02-10T11:21:09.140Z,2.90
2018-02-10T11:23:35.576Z,2.90
2018-02-10T11:26:02.043Z,3.00
2018-02-10T11:28:28.472Z,3.10
2018-02-10T11:30:54.975Z,3.00
2018-02-10T11:33:21.540Z,3.00
2018-02-10T11:35:48.751Z,3.00
2018-02-10T11:38:15.164Z,3.00
2018-02-10T11:40:42.391Z,2.90
2018-02-10T11:43:08.791Z,2.90
2018-02-10T11:45:35.179Z,2.90
2018-02-10T11:48:01.563Z,2.90
2018-02-10T11:50:28.729Z,2.80
2018-02-10T11:52:55.860Z,2.80
2018-02-10T11:55:22.270Z,2.80
2018-02-10T11:57:48.726Z,2.70
2018-02-10T12:00:15.202Z,2.80
2018-02-10T12:02:42.461Z,3.00
2018-02-10T12:05:08.876Z,3.00
2018-02-10T12:07:35.280Z,3.00
2018-02-10T12:10:02.431Z,2.90
2018-02-10T12:12:28.833Z,2.80
2018-02-10T12:14:55.252Z,2.80
2018-02-10T12:17:22.375Z,2.90
2018-02-10T12:19:48.804Z,2.90
2018-02-10T12:22:15.193Z,2.80
2018-02-10T12:24:41.588Z,2.70
2018-02-10T12:27:07.939Z,2.70
2018-02-10T12:29:34.357Z,2.70
2018-02-10T12:32:00.768Z,2.60
2018-02-10T12:34:27.131Z,2.30
2018-02-10T12:36:53.500Z,2.10
2018-02-10T12:39:19.919Z,2.10
2018-02-10T12:41:46.296Z,2.20
2018-02-10T12:44:12.708Z,2.20
2018-02-10T12:46:39.889Z,2.20
2018-02-10T12:49:13.147Z,2.20
2018-02-10T12:51:40.280Z,2.30
2018-02-10T12:54:06.726Z,2.20
2018-02-10T12:56:33.110Z,2.40
2018-02-10T12:58:59.568Z,2.60
2018-02-10T13:01:25.962Z,2.40
2018-02-10T13:03:52.468Z,2.30
2018-02-10T13:06:18.852Z,2.30
2018-02-10T13:08:45.297Z,2.40
2018-02-10T13:11:11.755Z,2.50
2018-02-10T13:13:38.143Z,2.60
2018-02-10T13:16:05.254Z,2.70
2018-02-10T13:18:31.644Z,2.60
2018-02-10T13:20:58.059Z,2.80
2018-02-10T13:23:24.495Z,2.90
2018-02-10T13:25:50.879Z,2.90
2018-02-10T13:28:17.318Z,3.00
2018-02-10T13:30:43.720Z,3.00
2018-02-10T13:33:11.169Z,2.80
2018-02-10T13:35:37.673Z,2.70
2018-02-10T13:38:04.122Z,2.80
2018-02-10T13:40:30.530Z,2.90
2018-02-10T13:42:57.747Z,2.50
2018-02-10T13:45:24.163Z,2.50
2018-02-10T13:47:50.680Z,2.20
2018-02-10T13:50:17.159Z,2.10
2018-02-10T13:52:43.613Z,2.00
2018-02-10T13:55:09.996Z,2.00
2018-02-10T13:57:36.515Z,2.10
2018-02-10T14:00:02.943Z,2.10
2018-02-10T14:02:29.503Z,2.20
2018-02-10T14:04:55.980Z,2.10
2018-02-10T14:07:22.383Z,2.20
2018-02-10T14:09:48.848Z,2.20
2018-02-10T14:12:15.679Z,2.20
2018-02-10T14:14:42.572Z,2.20
2018-02-10T14:17:08.962Z,2.30
2018-02-10T14:19:35.351Z,2.30
2018-02-10T14:22:01.798Z,2.20
2018-02-10T14:24:28.285Z,2.30
2018-02-10T14:26:54.723Z,2.40
2018-02-10T14:29:21.146Z,2.40
2018-02-10T14:31:47.597Z,2.50
2018-02-10T14:34:14.038Z,2.50
2018-02-10T14:36:40.495Z,2.60
2018-02-10T14:39:06.949Z,2.70
2018-02-10T14:41:33.360Z,2.80
2018-02-10T14:44:00.571Z,2.80
2018-02-10T14:46:27.003Z,2.70
2018-02-10T14:48:53.480Z,2.80
2018-02-10T14:51:19.888Z,2.70
2018-02-10T14:53:46.323Z,2.60
2018-02-10T14:56:12.732Z,2.50
2018-02-10T14:58:39.137Z,2.50
2018-02-10T15:01:05.505Z,2.40
2018-02-10T15:03:31.927Z,2.40
2018-02-10T15:05:58.383Z,2.40
2018-02-10T15:08:24.852Z,2.50
2018-02-10T15:10:51.372Z,2.50
2018-02-10T15:13:17.851Z,2.40
2018-02-10T15:15:44.260Z,2.30
2018-02-10T15:18:10.727Z,2.20
2018-02-10T15:20:37.135Z,2.20
2018-02-10T15:23:03.682Z,2.20
2018-02-10T15:25:30.177Z,2.20
2018-02-10T15:27:56.700Z,2.40
2018-02-10T15:30:35.510Z,2.40
2018-02-10T15:33:15.108Z,2.40
2018-02-10T15:35:41.530Z,2.40
2018-02-10T15:38:07.957Z,2.50
2018-02-10T15:40:35.119Z,2.30
2018-02-10T15:43:02.317Z,2.20
2018-02-10T15:45:29.818Z,2.20
2018-02-10T15:47:56.275Z,2.10
2018-02-10T15:50:23.732Z,2.10
2018-02-10T15:52:51.015Z,2.20
2018-02-10T15:55:17.452Z,2.10
2018-02-10T15:57:43.891Z,2.20
2018-02-10T16:00:10.304Z,2.20
2018-02-10T16:02:36.776Z,2.10
2018-02-10T16:05:03.216Z,2.00
2018-02-10T16:07:29.755Z,2.10
2018-02-10T16:09:56.228Z,2.00
2018-02-10T16:12:22.744Z,2.00
2018-02-10T16:14:49.940Z,2.20
2018-02-10T16:17:16.440Z,2.20
2018-02-10T16:19:42.871Z,2.30
2018-02-10T16:22:09.372Z,2.20
2018-02-10T16:24:35.828Z,2.20
2018-02-10T16:27:02.254Z,2.20
2018-02-10T16:29:28.727Z,2.10
2018-02-10T16:31:55.153Z,2.10
2018-02-10T16:34:21.613Z,2.10
2018-02-10T16:36:48.047Z,2.10
2018-02-10T16:39:14.533Z,2.10
2018-02-10T16:41:40.940Z,2.10
2018-02-10T16:44:07.432Z,2.10
2018-02-10T16:46:33.822Z,2.20
2018-02-10T16:49:00.980Z,2.20
2018-02-10T16:51:28.144Z,2.30
2018-02-10T16:53:54.629Z,2.30
2018-02-10T16:56:21.101Z,2.30
2018-02-10T16:58:49.017Z,2.30
2018-02-10T17:01:16.223Z,2.20
2018-02-10T17:03:42.660Z,2.30
2018-02-10T17:06:09.103Z,2.30
2018-02-10T17:08:35.560Z,2.30
2018-02-10T17:11:01.981Z,2.30
2018-02-10T17:13:28.415Z,2.20
2018-02-10T17:15:55.672Z,2.10
2018-02-10T17:18:22.181Z,2.10
2018-02-10T17:20:48.662Z,2.20
2018-02-10T17:23:15.173Z,2.10
2018-02-10T17:25:41.588Z,2.10
2018-02-10T17:28:08.058Z,2.10
2018-02-10T17:30:34.483Z,2.10
2018-02-10T17:33:00.956Z,2.00
2018-02-10T17:35:27.390Z,2.00
2018-02-10T17:37:53.860Z,1.90
2018-02-10T17:40:20.306Z,1.90
2018-02-10T17:42:46.743Z,1.90
2018-02-10T17:45:13.170Z,1.90
2018-02-10T17:47:39.651Z,1.80
2018-02-10T17:50:06.099Z,1.90
2018-02-10T17:52:32.558Z,1.90
2018-02-10T17:54:59.019Z,1.90
2018-02-10T17:57:25.576Z,1.90
2018-02-10T17:59:52.058Z,2.00
2018-02-10T18:02:18.541Z,2.00
2018-02-10T18:04:44.940Z,2.00
2018-02-10T18:07:12.134Z,1.90
2018-02-10T18:09:38.604Z,1.90
2018-02-10T18:12:06.078Z,2.00
2018-02-10T18:14:32.552Z,2.00
2018-02-10T18:16:59.045Z,2.00
2018-02-10T18:19:25.513Z,1.90
2018-02-10T18:21:51.963Z,1.90
2018-02-10T18:24:18.379Z,1.90
2018-02-10T18:26:44.897Z,2.00
2018-02-10T18:29:11.301Z,1.90
2018-02-10T18:31:37.796Z,1.90
2018-02-10T18:34:04.306Z,1.90
2018-02-10T18:36:30.760Z,1.90
2018-02-10T18:38:57.187Z,1.80
2018-02-10T18:41:23.627Z,1.80
2018-02-10T18:43:50.129Z,1.80
2018-02-10T18:46:16.635Z,1.90
2018-02-10T18:48:43.044Z,1.80
2018-02-10T18:51:10.236Z,1.80
2018-02-10T18:53:36.717Z,1.80
2018-02-10T18:56:03.252Z,1.90
2018-02-10T18:58:29.961Z,1.90
2018-02-10T19:00:57.191Z,1.90
2018-02-10T19:03:23.722Z,1.90
2018-02-10T19:05:50.176Z,1.90
2018-02-10T19:08:17.496Z,1.90
2018-02-10T19:10:44.060Z,1.80
2018-02-10T19:13:10.488Z,1.90
2018-02-10T19:15:37.700Z,1.80
2018-02-10T19:18:04.116Z,1.80
2018-02-10T19:20:30.591Z,1.80
2018-02-10T19:22:57.006Z,1.80
2018-02-10T19:25:24.190Z,1.80
2018-02-10T19:27:50.617Z,1.80
2018-02-10T19:30:17.096Z,1.90
2018-02-10T19:32:43.509Z,1.90
2018-02-10T19:35:10.204Z,1.90
2018-02-10T19:37:37.439Z,2.10
2018-02-10T19:40:03.913Z,2.10
2018-02-10T19:42:30.352Z,2.30
2018-02-10T19:44:56.806Z,2.20
2018-02-10T19:47:23.240Z,2.10
2018-02-10T19:49:49.720Z,2.20
2018-02-10T19:52:16.241Z,2.30
2018-02-10T19:54:42.731Z,2.20
2018-02-10T19:57:09.212Z,2.30
2018-02-10T19:59:35.663Z,2.20
2018-02-10T20:02:02.131Z,2.20
2018-02-10T20:04:28.601Z,2.20
2018-02-10T20:06:55.012Z,2.20
2018-02-10T20:09:21.432Z,2.10
2018-02-10T20:11:48.617Z,2.00
2018-02-10T20:14:15.104Z,1.90
2018-02-10T20:16:41.528Z,2.00
2018-02-10T20:19:07.988Z,2.00
2018-02-10T20:21:34.430Z,2.10
2018-02-10T20:24:00.883Z,2.20
2018-02-10T20:26:27.294Z,2.20
2018-02-10T20:28:53.776Z,2.20
2018-02-10T20:31:20.200Z,2.20
2018-02-10T20:33:46.656Z,2.20
2018-02-10T20:36:13.096Z,2.10
2018-02-10T20:38:39.557Z,2.20
2018-02-10T20:41:06.000Z,2.20
2018-02-10T20:43:32.448Z,2.20
2018-02-10T20:45:58.939Z,2.20
2018-02-10T20:48:26.164Z,2.20
2018-02-10T20:50:52.557Z,2.10
2018-02-10T20:53:19.064Z,2.30
2018-02-10T20:55:46.352Z,2.30
2018-02-10T20:58:12.816Z,2.20
2018-02-10T21:00:39.956Z,2.10
2018-02-10T21:03:06.412Z,2.10
2018-02-10T21:05:32.852Z,2.20
2018-02-10T21:07:59.309Z,2.20
2018-02-10T21:10:25.824Z,2.30
2018-02-10T21:12:52.280Z,2.30
2018-02-10T21:15:18.702Z,2.30
2018-02-10T21:17:45.232Z,2.20
2018-02-10T21:20:12.448Z,2.20
2018-02-10T21:22:38.907Z,2.20
2018-02-10T21:25:05.489Z,2.10
2018-02-10T21:27:32.718Z,2.30
2018-02-10T21:29:59.167Z,2.30
2018-02-10T21:32:25.604Z,2.30
2018-02-10T21:34:52.059Z,2.40
2018-02-10T21:37:18.528Z,2.50
2018-02-10T21:39:45.032Z,2.50
2018-02-10T21:42:11.456Z,2.50
2018-02-10T21:44:38.359Z,2.50
2018-02-10T21:47:04.815Z,2.40
2018-02-10T21:49:31.224Z,2.40
2018-02-10T21:51:57.716Z,2.30
2018-02-10T21:54:24.106Z,2.20
2018-02-10T21:56:51.311Z,2.30
2018-02-10T21:59:17.724Z,2.30
2018-02-10T22:01:44.215Z,2.30
2018-02-10T22:04:11.499Z,2.20
2018-02-10T22:06:38.030Z,2.20
2018-02-10T22:09:06.256Z,2.30
2018-02-10T22:11:33.528Z,2.30
2018-02-10T22:14:00.718Z,2.30
2018-02-10T22:16:27.176Z,2.30
2018-02-10T22:18:53.655Z,2.30
2018-02-10T23:43:16.536Z,2.10
2018-02-10T23:45:43.060Z,1.30
2018-02-10T23:48:09.527Z,1.30
2018-02-10T23:50:36.100Z,1.20
2018-02-10T23:53:03.320Z,1.20
2018-02-10T23:55:29.784Z,1.20
2018-02-10T23:57:56.313Z,1.20
